createdAt,value
2019-01-03T00:03:05.820Z,93.03
2019-01-03T00:08:19.403Z,92.81
2019-01-03T00:13:38.525Z,93.79
2019-01-03T00:18:54.384Z,93.66
2019-01-03T00:24:12.292Z,92.46
2019-01-03T00:29:26.996Z,92.66
2019-01-03T00:34:38.049Z,93.56
2019-01-03T00:39:58.804Z,93.99
2019-01-03T00:45:18.759Z,93.83
2019-01-03T00:50:32.523Z,93.69
2019-01-03T00:55:46.159Z,93.06
2019-01-03T01:01:01.082Z,92.64
2019-01-03T01:06:12.056Z,92.70
2019-01-03T01:11:26.727Z,91.63
2019-01-03T01:16:40.727Z,91.78
2019-01-03T01:21:58.612Z,93.03
2019-01-03T01:27:22.301Z,92.81
2019-01-03T01:32:43.582Z,93.04
2019-01-03T01:37:57.362Z,93.02
2019-01-03T01:43:14.901Z,93.27
2019-01-03T01:48:29.269Z,92.62
2019-01-03T01:53:52.891Z,92.17
2019-01-03T01:59:06.171Z,92.20
2019-01-03T02:04:23.622Z,93.38
2019-01-03T02:09:37.293Z,93.30
2019-01-03T02:14:55.095Z,92.02
2019-01-03T02:20:12.927Z,90.35
2019-01-03T02:25:40.024Z,91.44
2019-01-03T02:31:00.767Z,93.60
2019-01-03T02:36:22.053Z,93.76
2019-01-03T02:41:36.793Z,93.16
2019-01-03T02:47:00.394Z,92.89
2019-01-03T02:52:09.780Z,94.27
2019-01-03T02:57:24.400Z,93.71
2019-01-03T03:02:42.157Z,94.97
2019-01-03T03:08:00.380Z,94.75
2019-01-03T03:13:20.128Z,90.83
2019-01-03T03:18:37.968Z,93.40
2019-01-03T03:23:52.682Z,93.05
2019-01-03T03:29:10.213Z,93.45
2019-01-03T03:34:23.736Z,93.64
2019-01-03T03:39:44.261Z,93.89
2019-01-03T03:44:58.932Z,92.72
2019-01-03T03:50:12.719Z,91.96
2019-01-03T03:55:36.704Z,92.79
2019-01-03T04:01:06.626Z,93.10
2019-01-03T04:06:20.293Z,94.51
2019-01-03T04:11:34.047Z,95.46
2019-01-03T04:16:48.702Z,93.15
2019-01-03T04:22:02.376Z,95.20
2019-01-03T04:27:15.946Z,93.95
2019-01-03T04:32:33.368Z,94.44
2019-01-03T04:37:48.009Z,92.20
2019-01-03T04:43:10.975Z,92.00
2019-01-03T04:48:24.440Z,93.40
2019-01-03T04:53:45.090Z,96.32
2019-01-03T04:59:02.856Z,95.72
2019-01-03T05:04:16.119Z,95.89
2019-01-03T05:09:49.276Z,96.26
2019-01-03T05:15:13.283Z,96.12
2019-01-03T05:20:27.046Z,91.89
2019-01-03T05:25:44.769Z,94.28
2019-01-03T05:31:01.022Z,94.07
2019-01-03T05:36:15.658Z,93.50
2019-01-03T05:41:23.273Z,93.37
2019-01-03T05:46:40.886Z,93.55
2019-01-03T05:52:07.865Z,95.63
2019-01-03T05:57:37.487Z,94.28
2019-01-03T06:02:50.906Z,93.82
2019-01-03T06:08:20.685Z,95.33
2019-01-03T06:13:41.513Z,94.60
2019-01-03T06:18:59.432Z,95.09
2019-01-03T06:24:32.507Z,93.17
2019-01-03T06:29:46.043Z,94.28
2019-01-03T06:35:01.043Z,92.96
2019-01-03T06:40:14.798Z,93.35
2019-01-03T06:45:28.485Z,94.56
2019-01-03T06:50:42.404Z,95.44
2019-01-03T06:56:07.206Z,95.30
2019-01-03T07:01:37.504Z,92.27
2019-01-03T07:07:01.425Z,93.80
2019-01-03T07:12:16.044Z,92.02
2019-01-03T07:17:23.952Z,93.69
2019-01-03T07:22:37.884Z,93.70
2019-01-03T07:27:55.588Z,92.57
2019-01-03T07:33:16.420Z,93.43
2019-01-03T07:38:42.051Z,92.33
2019-01-03T07:44:06.090Z,91.85
2019-01-03T07:49:29.313Z,92.34
2019-01-03T07:54:44.158Z,91.97
2019-01-03T07:59:59.749Z,92.69
2019-01-03T08:05:14.508Z,91.53
2019-01-03T08:10:27.970Z,90.86
2019-01-03T08:15:57.798Z,91.65
2019-01-03T08:21:28.011Z,92.65
2019-01-03T08:26:55.725Z,93.86
2019-01-03T08:32:13.472Z,92.59
2019-01-03T08:37:40.718Z,90.19
2019-01-03T08:42:59.070Z,90.30
2019-01-03T08:48:13.921Z,89.98
2019-01-03T08:53:40.776Z,89.50
2019-01-03T08:58:48.281Z,90.62
2019-01-03T09:04:18.199Z,90.56
2019-01-03T09:09:44.971Z,90.46
2019-01-03T09:14:52.526Z,90.10
2019-01-03T09:20:14.113Z,89.94
2019-01-03T09:25:28.856Z,89.61
2019-01-03T09:30:46.288Z,89.52
2019-01-03T09:36:01.871Z,88.59
2019-01-03T09:41:19.662Z,87.78
2019-01-03T09:46:15.581Z,86.87
2019-01-03T09:51:11.549Z,87.33
2019-01-03T09:56:07.621Z,87.08
2019-01-03T10:01:03.491Z,86.21
2019-01-03T10:06:01.568Z,86.81
2019-01-03T10:10:57.460Z,84.92
2019-01-03T10:15:55.920Z,84.04
2019-01-03T10:20:54.086Z,83.17
2019-01-03T10:25:51.525Z,85.31
2019-01-03T10:30:48.362Z,85.33
2019-01-03T10:35:45.847Z,81.70
2019-01-03T10:40:41.747Z,82.33
2019-01-03T10:45:37.633Z,81.01
2019-01-03T10:50:33.724Z,80.81
2019-01-03T10:55:30.322Z,78.88
2019-01-03T11:00:26.295Z,78.03
2019-01-03T11:05:22.157Z,81.63
2019-01-03T11:10:17.987Z,80.32
2019-01-03T11:15:14.075Z,79.89
2019-01-03T11:20:09.868Z,76.12
2019-01-03T11:25:06.116Z,74.16
2019-01-03T11:30:01.988Z,72.62
2019-01-03T11:34:57.782Z,72.87
2019-01-03T11:39:53.792Z,74.92
2019-01-03T11:44:49.695Z,76.34
2019-01-03T11:49:45.561Z,75.24
2019-01-03T11:54:42.525Z,74.10
2019-01-03T11:59:38.429Z,74.32
2019-01-03T12:04:34.214Z,73.19
2019-01-03T12:09:30.073Z,69.32
2019-01-03T12:14:25.990Z,71.87
2019-01-03T12:19:21.829Z,71.51
2019-01-03T12:24:17.672Z,73.67
2019-01-03T12:29:13.776Z,71.83
2019-01-03T12:34:09.737Z,71.35
2019-01-03T12:39:07.475Z,69.97
2019-01-03T12:44:03.888Z,67.71
2019-01-03T12:48:59.736Z,69.37
2019-01-03T12:53:55.725Z,72.19
2019-01-03T12:58:51.617Z,73.26
2019-01-03T13:03:50.248Z,71.05
2019-01-03T13:08:46.283Z,70.50
2019-01-03T13:13:42.300Z,69.93
2019-01-03T13:18:38.306Z,68.01
2019-01-03T13:23:34.185Z,67.82
2019-01-03T13:28:29.945Z,68.20
2019-01-03T13:33:25.847Z,69.85
2019-01-03T13:44:34.007Z,71.80
2019-01-03T13:49:29.863Z,69.25
2019-01-03T13:54:25.855Z,72.09
2019-01-03T13:59:21.712Z,67.16
2019-01-03T14:04:17.863Z,65.37
2019-01-03T14:09:13.695Z,61.58
2019-01-03T14:14:09.579Z,63.71
2019-01-03T14:19:05.484Z,67.37
2019-01-03T14:24:01.669Z,63.30
2019-01-03T14:28:57.434Z,66.62
2019-01-03T14:33:53.444Z,62.70
2019-01-03T14:38:49.270Z,62.04
2019-01-03T14:44:02.130Z,60.92
2019-01-03T14:49:36.125Z,63.69
2019-01-03T15:00:59.285Z,62.30
2019-01-03T15:06:58.294Z,66.07
2019-01-03T15:11:58.792Z,69.99
2019-01-03T15:17:04.560Z,72.04
2019-01-03T15:22:31.627Z,68.09
2019-01-03T15:27:25.696Z,69.28
2019-01-03T15:32:21.838Z,67.48
2019-01-03T15:37:17.631Z,65.88
2019-01-03T15:42:13.528Z,67.41
2019-01-03T15:47:09.435Z,72.16
2019-01-03T15:52:05.286Z,75.27
2019-01-03T15:57:01.353Z,77.67
2019-01-03T16:02:03.452Z,79.00
2019-01-03T16:06:59.309Z,81.03
2019-01-03T16:11:55.166Z,81.61
2019-01-03T16:17:01.340Z,82.02
2019-01-03T16:21:57.221Z,81.54
2019-01-03T16:26:54.399Z,81.84
2019-01-03T16:31:50.703Z,82.51
2019-01-03T16:37:00.106Z,82.35
2019-01-03T16:41:56.086Z,81.59
2019-01-03T16:46:52.368Z,78.87
2019-01-03T16:52:24.209Z,78.89
2019-01-03T16:57:59.481Z,77.51
2019-01-03T17:09:46.351Z,78.75
2019-01-03T17:15:16.598Z,76.10
2019-01-03T17:20:22.343Z,74.65
2019-01-03T17:25:19.405Z,74.18
2019-01-03T17:30:18.668Z,72.75
2019-01-03T17:35:15.137Z,74.16
2019-01-03T17:40:14.069Z,72.99
2019-01-03T17:46:14.007Z,73.58
2019-01-03T17:51:48.161Z,71.75
2019-01-03T17:56:43.887Z,73.38
2019-01-03T18:01:39.866Z,73.21
2019-01-03T18:06:37.153Z,74.66
2019-01-03T18:11:35.260Z,72.42
2019-01-03T18:16:31.034Z,71.99
2019-01-03T18:21:26.887Z,71.89
2019-01-03T18:26:22.693Z,73.41
2019-01-03T18:31:18.575Z,72.49
2019-01-03T18:36:14.529Z,75.72
2019-01-03T18:41:10.357Z,77.84
2019-01-03T18:46:06.299Z,80.94
2019-01-03T18:51:02.175Z,85.44
2019-01-03T18:55:58.159Z,85.61
2019-01-03T19:00:54.051Z,86.21
2019-01-03T19:05:51.250Z,86.64
2019-01-03T19:10:47.263Z,86.79
2019-01-03T19:15:43.205Z,87.25
2019-01-03T19:20:39.007Z,87.72
2019-01-03T19:25:34.869Z,86.90
2019-01-03T19:30:30.750Z,85.88
2019-01-03T19:35:26.590Z,86.00
2019-01-03T19:40:22.480Z,87.23
2019-01-03T19:45:18.856Z,85.70
2019-01-03T19:50:27.589Z,87.25
2019-01-03T19:55:23.885Z,84.56
2019-01-03T20:00:21.261Z,85.86
2019-01-03T20:05:27.668Z,85.64
2019-01-03T20:10:23.440Z,87.69
2019-01-03T20:15:19.401Z,86.56
2019-01-03T20:20:15.316Z,85.87
2019-01-03T20:25:12.044Z,85.79
2019-01-03T20:30:08.650Z,86.51
2019-01-03T20:35:04.954Z,85.99
2019-01-03T20:40:01.057Z,85.59
2019-01-03T20:44:57.111Z,86.24
2019-01-03T20:49:53.246Z,86.59
2019-01-03T20:54:49.298Z,86.44
2019-01-03T20:59:45.329Z,87.24
2019-01-03T21:04:41.403Z,88.46
2019-01-03T21:09:37.740Z,88.36
2019-01-03T21:14:33.705Z,89.56
2019-01-03T21:19:29.867Z,91.33
2019-01-03T21:24:25.708Z,91.13
2019-01-03T21:29:21.568Z,90.90
2019-01-03T21:34:17.871Z,91.57
2019-01-03T21:39:18.329Z,91.99
2019-01-03T21:44:17.251Z,91.45
2019-01-03T21:49:13.468Z,92.06
2019-01-03T21:54:11.444Z,92.90
2019-01-03T21:59:14.779Z,93.51
2019-01-03T22:04:10.777Z,93.31
2019-01-03T22:09:07.794Z,92.97
2019-01-03T22:14:03.736Z,94.20
2019-01-03T22:19:01.148Z,94.95
2019-01-03T22:24:02.020Z,94.24
2019-01-03T22:29:02.258Z,94.13
2019-01-03T22:33:58.436Z,94.24
2019-01-03T22:38:54.347Z,93.33
2019-01-03T22:43:50.345Z,92.26
2019-01-03T22:48:49.572Z,91.47
2019-01-03T22:53:45.538Z,91.32
2019-01-03T22:58:41.875Z,91.61
2019-01-03T23:03:50.501Z,91.92
2019-01-03T23:08:50.852Z,91.75
2019-01-03T23:13:47.032Z,93.21
2019-01-03T23:18:43.607Z,93.11
2019-01-03T23:23:42.660Z,92.50
2019-01-03T23:28:39.104Z,91.59
2019-01-03T23:33:37.473Z,92.35
2019-01-03T23:38:43.333Z,92.73
2019-01-03T23:43:44.900Z,93.43
2019-01-03T23:49:10.779Z,93.07
2019-01-03T23:54:26.397Z,92.75
2019-01-03T23:59:31.375Z,92.62
